createdAt,value
2022-09-16T00:02:04.157Z,34.83
2022-09-16T00:06:56.718Z,31.83
2022-09-16T00:11:50.536Z,29.07
2022-09-16T00:16:43.123Z,25.67
2022-09-16T00:21:35.640Z,24.00
2022-09-16T00:26:28.126Z,21.77
2022-09-16T00:31:22.000Z,20.60
2022-09-16T00:36:15.726Z,27.10
2022-09-16T00:41:08.526Z,28.23
2022-09-16T00:46:03.147Z,31.47
2022-09-16T00:50:59.588Z,35.80
2022-09-16T00:55:52.492Z,45.70
2022-09-16T01:00:45.019Z,48.07
2022-09-16T01:05:38.242Z,49.23
2022-09-16T01:10:32.329Z,62.60
2022-09-16T01:15:27.257Z,60.03
2022-09-16T01:20:35.365Z,43.23
2022-09-16T01:25:32.633Z,36.20
2022-09-16T01:30:54.980Z,28.40
2022-09-16T01:35:58.047Z,31.37
2022-09-16T01:40:54.299Z,20.97
2022-09-16T01:45:52.674Z,18.90
2022-09-16T01:50:47.391Z,17.97
2022-09-16T01:55:43.687Z,21.13
2022-09-16T02:00:36.330Z,16.97
2022-09-16T02:05:30.163Z,13.57
2022-09-16T02:10:25.704Z,13.97
2022-09-16T02:15:22.263Z,16.60
2022-09-16T02:20:17.316Z,15.40
2022-09-16T02:25:10.389Z,16.17
2022-09-16T02:30:03.971Z,18.40
2022-09-16T02:34:58.516Z,15.23
2022-09-16T02:39:53.011Z,14.67
2022-09-16T02:44:46.970Z,16.60
2022-09-16T02:49:42.147Z,17.60
2022-09-16T02:54:37.497Z,15.80
2022-09-16T02:59:29.998Z,23.17
2022-09-16T03:04:22.518Z,15.77
2022-09-16T03:09:15.665Z,22.23
2022-09-16T03:14:17.780Z,24.17
2022-09-16T03:19:16.561Z,23.27
2022-09-16T03:24:11.775Z,23.50
2022-09-16T03:29:12.377Z,33.00
2022-09-16T03:34:08.694Z,35.37
2022-09-16T03:39:01.599Z,40.13
2022-09-16T03:43:54.528Z,40.10
2022-09-16T03:48:46.981Z,34.30
2022-09-16T03:53:40.785Z,38.90
2022-09-16T03:58:33.271Z,38.20
2022-09-16T04:03:27.942Z,27.73
2022-09-16T04:08:24.141Z,22.97
2022-09-16T04:13:17.980Z,22.20
2022-09-16T04:18:10.497Z,26.30
2022-09-16T04:23:02.978Z,27.67
2022-09-16T04:27:55.555Z,22.57
2022-09-16T04:32:53.443Z,29.93
2022-09-16T04:37:46.437Z,23.77
2022-09-16T04:42:38.972Z,28.80
2022-09-16T04:47:31.424Z,36.03
2022-09-16T04:52:25.372Z,35.43
2022-09-16T04:57:17.825Z,32.43
2022-09-16T05:02:10.345Z,35.30
2022-09-16T05:07:03.078Z,34.53
2022-09-16T05:11:56.917Z,31.07
2022-09-16T05:16:49.429Z,32.60
2022-09-16T05:21:41.933Z,18.97
2022-09-16T05:26:35.307Z,25.80
2022-09-16T05:31:30.457Z,33.60
2022-09-16T05:36:23.369Z,31.30
2022-09-16T05:41:15.814Z,21.93
2022-09-16T05:46:08.650Z,17.17
2022-09-16T05:51:03.361Z,20.07
2022-09-16T05:55:57.415Z,16.33
2022-09-16T06:00:50.070Z,18.10
2022-09-16T06:05:45.679Z,16.27
2022-09-16T06:10:40.214Z,14.63
2022-09-16T06:15:32.737Z,19.53
2022-09-16T06:20:25.393Z,18.07
2022-09-16T06:25:17.989Z,18.80
2022-09-16T06:30:12.593Z,18.50
2022-09-16T06:35:05.381Z,18.87
2022-09-16T06:39:57.915Z,18.50
2022-09-16T06:44:50.394Z,27.60
2022-09-16T06:49:44.370Z,26.57
2022-09-16T06:54:36.987Z,24.47
2022-09-16T06:59:29.501Z,23.93
2022-09-16T07:04:21.979Z,23.13
2022-09-16T07:09:15.798Z,22.30
2022-09-16T07:14:09.313Z,28.23
2022-09-16T07:19:01.931Z,30.17
2022-09-16T07:23:56.028Z,23.53
2022-09-16T07:28:50.424Z,28.90
2022-09-16T07:33:43.635Z,24.27
2022-09-16T07:38:36.248Z,18.97
2022-09-16T07:43:28.737Z,16.70
2022-09-16T07:48:22.557Z,25.90
2022-09-16T07:53:15.040Z,23.33
2022-09-16T07:58:07.487Z,20.87
2022-09-16T08:03:00.769Z,17.50
2022-09-16T08:07:54.891Z,20.13
2022-09-16T08:12:47.953Z,17.00
2022-09-16T08:17:40.448Z,15.10
2022-09-16T08:22:33.045Z,14.30
2022-09-16T08:27:27.833Z,12.87
2022-09-16T08:32:20.369Z,11.70
2022-09-16T08:37:12.841Z,14.00
2022-09-16T08:42:10.583Z,10.83
2022-09-16T08:47:06.252Z,8.57
2022-09-16T08:51:59.589Z,11.33
2022-09-16T08:56:53.882Z,9.63
2022-09-16T09:01:50.349Z,16.57
2022-09-16T09:06:59.286Z,6.73
2022-09-16T09:11:55.462Z,7.57
2022-09-16T09:16:53.961Z,8.33
2022-09-16T09:21:52.070Z,7.13
2022-09-16T09:26:48.539Z,6.10
2022-09-16T09:31:44.884Z,9.33
2022-09-16T09:36:43.568Z,5.87
2022-09-16T09:41:38.639Z,11.57
2022-09-16T09:46:35.424Z,8.00
2022-09-16T09:51:31.230Z,10.10
2022-09-16T09:56:25.088Z,10.53
2022-09-16T10:01:18.305Z,10.33
2022-09-16T10:06:12.899Z,11.37
2022-09-16T10:11:15.988Z,8.40
2022-09-16T10:16:10.582Z,11.07
2022-09-16T10:21:05.782Z,12.13
2022-09-16T10:26:22.316Z,10.90
2022-09-16T10:31:16.190Z,10.40
2022-09-16T10:36:09.579Z,9.70
2022-09-16T10:41:06.136Z,13.93
2022-09-16T10:45:59.065Z,13.17
2022-09-16T10:50:57.214Z,12.90
2022-09-16T10:55:57.158Z,13.07
2022-09-16T11:00:51.475Z,15.43
2022-09-16T11:05:47.827Z,11.33
2022-09-16T11:10:45.181Z,9.30
2022-09-16T11:15:44.522Z,14.63
2022-09-16T11:21:04.374Z,9.93
2022-09-16T11:26:01.640Z,14.90
2022-09-16T11:30:56.809Z,11.47
2022-09-16T11:36:04.644Z,8.37
2022-09-16T11:41:01.184Z,9.73
2022-09-16T11:45:59.329Z,4.03
2022-09-16T11:50:55.137Z,6.53
2022-09-16T11:55:50.235Z,5.07
2022-09-16T12:00:42.759Z,4.20
2022-09-16T12:05:38.394Z,5.30
2022-09-16T12:10:37.277Z,5.40
2022-09-16T12:15:32.051Z,4.30
2022-09-16T12:20:27.387Z,6.60
2022-09-16T12:25:24.055Z,6.20
2022-09-16T12:30:18.239Z,8.00
2022-09-16T12:35:13.780Z,4.93
2022-09-16T12:40:21.255Z,6.20
2022-09-16T12:45:25.753Z,6.03
2022-09-16T12:50:27.093Z,6.87
2022-09-16T12:55:43.365Z,5.87
2022-09-16T13:00:40.207Z,5.50
2022-09-16T13:05:34.001Z,4.60
2022-09-16T13:10:53.810Z,7.60
2022-09-16T13:15:45.082Z,4.30
2022-09-16T13:20:41.090Z,4.37
2022-09-16T13:25:35.324Z,3.30
2022-09-16T13:30:29.769Z,4.27
2022-09-16T13:35:35.502Z,3.77
2022-09-16T13:40:30.320Z,4.40
2022-09-16T13:45:33.233Z,3.20
2022-09-16T13:50:27.257Z,4.17
2022-09-16T13:55:21.267Z,5.63
2022-09-16T14:00:15.576Z,5.67
2022-09-16T14:05:16.717Z,4.67
2022-09-16T14:10:12.743Z,4.20
2022-09-16T14:15:06.181Z,5.13
2022-09-16T14:19:59.571Z,8.53
2022-09-16T14:25:00.731Z,4.67
2022-09-16T14:30:02.678Z,5.00
2022-09-16T14:34:56.014Z,4.63
2022-09-16T14:39:51.975Z,5.20
2022-09-16T14:44:48.331Z,3.07
2022-09-16T14:49:42.833Z,12.53
2022-09-16T14:54:44.129Z,2.47
2022-09-16T14:59:37.643Z,4.03
2022-09-16T15:04:33.160Z,3.70
2022-09-16T15:09:29.362Z,3.20
2022-09-16T15:14:22.004Z,3.13
2022-09-16T15:19:20.289Z,4.93
2022-09-16T15:24:16.878Z,3.97
2022-09-16T15:34:21.570Z,6.20
2022-09-16T15:39:23.791Z,4.50
2022-09-16T15:44:20.003Z,2.50
2022-09-16T15:49:14.602Z,3.27
2022-09-16T15:54:08.802Z,9.20
2022-09-16T15:59:02.355Z,3.80
2022-09-16T16:03:57.608Z,3.77
2022-09-16T16:08:50.752Z,4.63
2022-09-16T16:13:43.843Z,6.63
2022-09-16T16:18:36.735Z,4.13
2022-09-16T16:23:30.644Z,3.30
2022-09-16T16:28:23.115Z,3.73
2022-09-16T16:33:15.587Z,2.83
2022-09-16T16:38:08.040Z,4.33
2022-09-16T16:43:01.866Z,3.97
2022-09-16T16:47:54.374Z,2.60
2022-09-16T16:52:51.009Z,6.87
2022-09-16T16:57:44.673Z,3.50
2022-09-16T17:02:38.537Z,6.00
2022-09-16T17:07:31.043Z,2.40
2022-09-16T17:12:23.530Z,3.50
2022-09-16T17:17:16.034Z,3.93
2022-09-16T17:22:09.885Z,2.10
2022-09-16T17:27:02.334Z,4.27
2022-09-16T17:31:56.879Z,1.70
2022-09-16T17:36:49.451Z,5.83
2022-09-16T17:41:43.955Z,3.67
2022-09-16T17:46:36.563Z,2.37
2022-09-16T17:51:29.295Z,2.00
2022-09-16T17:56:21.906Z,1.90
2022-09-16T18:01:17.152Z,1.80
2022-09-16T18:06:11.637Z,1.60
2022-09-16T18:11:04.768Z,1.60
2022-09-16T18:15:57.353Z,1.67
2022-09-16T18:20:55.089Z,2.17
2022-09-16T18:25:47.603Z,1.40
2022-09-16T18:30:40.238Z,1.93
2022-09-16T18:35:37.038Z,2.27
2022-09-16T18:40:33.190Z,1.77
2022-09-16T18:45:31.071Z,2.30
2022-09-16T18:50:23.582Z,1.80
2022-09-16T18:55:16.465Z,1.70
2022-09-16T19:00:11.161Z,1.90
2022-09-16T19:05:03.627Z,2.43
2022-09-16T19:09:56.129Z,1.63
2022-09-16T19:14:48.568Z,2.47
2022-09-16T19:19:42.413Z,3.50
2022-09-16T19:24:35.085Z,2.00
2022-09-16T19:29:27.555Z,2.33
2022-09-16T19:34:20.470Z,2.00
2022-09-16T19:39:14.734Z,2.23
2022-09-16T19:44:08.884Z,2.23
2022-09-16T19:49:01.456Z,2.97
2022-09-16T19:53:54.456Z,2.07
2022-09-16T19:58:49.180Z,3.17
2022-09-16T20:03:43.828Z,3.17
2022-09-16T20:08:36.781Z,2.40
2022-09-16T20:13:29.500Z,1.90
2022-09-16T20:18:23.421Z,2.00
2022-09-16T20:23:15.892Z,2.90
2022-09-16T20:28:08.405Z,3.60
2022-09-16T20:33:01.083Z,3.93
2022-09-16T20:37:54.949Z,4.40
2022-09-16T20:42:47.540Z,3.27
2022-09-16T20:47:40.129Z,3.07
2022-09-16T20:52:33.250Z,3.53
2022-09-16T20:57:28.924Z,2.17
2022-09-16T21:02:21.477Z,2.43
2022-09-16T21:07:14.054Z,3.20
2022-09-16T21:12:07.302Z,4.20
2022-09-16T21:17:01.468Z,2.80
2022-09-16T21:21:53.951Z,5.47
2022-09-16T21:26:46.460Z,2.80
2022-09-16T21:31:39.617Z,2.50
2022-09-16T21:36:35.246Z,4.03
2022-09-16T21:41:28.078Z,3.13
2022-09-16T21:46:21.534Z,2.83
2022-09-16T21:51:14.939Z,4.70
2022-09-16T21:56:09.677Z,1.97
2022-09-16T22:01:06.354Z,4.83
2022-09-16T22:05:58.992Z,2.63
2022-09-16T22:10:51.707Z,2.93
2022-09-16T22:15:51.233Z,2.10
2022-09-16T22:20:43.809Z,3.00
2022-09-16T22:25:36.487Z,2.33
2022-09-16T22:30:30.183Z,2.40
2022-09-16T22:35:23.994Z,2.80
2022-09-16T22:40:16.593Z,2.17
2022-09-16T22:45:09.573Z,2.93
2022-09-16T22:50:02.035Z,2.83
2022-09-16T22:54:55.865Z,3.07
2022-09-16T22:59:48.344Z,3.93
2022-09-16T23:04:40.825Z,2.97
2022-09-16T23:09:33.301Z,3.40
2022-09-16T23:14:27.114Z,3.60
2022-09-16T23:19:19.836Z,2.57
2022-09-16T23:24:14.483Z,2.50
2022-09-16T23:29:07.741Z,4.43
2022-09-16T23:34:01.797Z,2.53
2022-09-16T23:38:54.745Z,2.70
2022-09-16T23:43:47.864Z,1.60
2022-09-16T23:48:40.866Z,1.77
2022-09-16T23:53:35.170Z,5.13
2022-09-16T23:58:27.655Z,3.80
